sensor_id;sensor_type;location;lat;lon;timestamp;temperature;humidity
2893;DHT22;1456;51.840;12.184;2022-07-12T00:01:51;15.50;99.90
2893;DHT22;1456;51.840;12.184;2022-07-12T00:04:17;15.40;99.90
2893;DHT22;1456;51.840;12.184;2022-07-12T00:06:43;15.40;99.90
2893;DHT22;1456;51.840;12.184;2022-07-12T00:09:08;15.40;99.90
2893;DHT22;1456;51.840;12.184;2022-07-12T00:11:37;15.40;99.90
2893;DHT22;1456;51.840;12.184;2022-07-12T00:14:04;15.30;99.90
2893;DHT22;1456;51.840;12.184;2022-07-12T00:16:30;15.30;99.90
2893;DHT22;1456;51.840;12.184;2022-07-12T00:18:55;15.30;99.90
2893;DHT22;1456;51.840;12.184;2022-07-12T00:21:21;15.20;99.90
2893;DHT22;1456;51.840;12.184;2022-07-12T00:23:47;15.20;99.90
2893;DHT22;1456;51.840;12.184;2022-07-12T00:26:12;15.20;99.90
2893;DHT22;1456;51.840;12.184;2022-07-12T00:28:38;15.20;99.90
2893;DHT22;1456;51.840;12.184;2022-07-12T00:31:04;15.20;99.90
2893;DHT22;1456;51.840;12.184;2022-07-12T00:33:31;15.10;99.90
2893;DHT22;1456;51.840;12.184;2022-07-12T00:35:57;15.10;99.90
2893;DHT22;1456;51.840;12.184;2022-07-12T00:38:23;15.10;99.90
2893;DHT22;1456;51.840;12.184;2022-07-12T00:40:48;15.10;99.90
2893;DHT22;1456;51.840;12.184;2022-07-12T00:43:15;15.10;99.90
2893;DHT22;1456;51.840;12.184;2022-07-12T00:45:41;15.00;99.90
2893;DHT22;1456;51.840;12.184;2022-07-12T00:48:08;15.00;99.90
2893;DHT22;1456;51.840;12.184;2022-07-12T00:50:34;15.00;99.90
2893;DHT22;1456;51.840;12.184;2022-07-12T00:53:00;14.90;99.90
2893;DHT22;1456;51.840;12.184;2022-07-12T00:55:26;14.90;99.90
2893;DHT22;1456;51.840;12.184;2022-07-12T00:57:51;14.90;99.90
2893;DHT22;1456;51.840;12.184;2022-07-12T01:00:23;14.80;99.90
2893;DHT22;1456;51.840;12.184;2022-07-12T01:02:51;14.70;99.90
2893;DHT22;1456;51.840;12.184;2022-07-12T01:05:17;14.70;99.90
2893;DHT22;1456;51.840;12.184;2022-07-12T01:07:47;14.70;99.90
2893;DHT22;1456;51.840;12.184;2022-07-12T01:10:13;14.70;99.90
2893;DHT22;1456;51.840;12.184;2022-07-12T01:12:40;14.70;99.90
2893;DHT22;1456;51.840;12.184;2022-07-12T01:15:07;14.70;99.90
2893;DHT22;1456;51.840;12.184;2022-07-12T01:17:33;14.60;99.90
2893;DHT22;1456;51.840;12.184;2022-07-12T01:19:59;14.60;99.90
2893;DHT22;1456;51.840;12.184;2022-07-12T01:22:35;14.60;99.90
2893;DHT22;1456;51.840;12.184;2022-07-12T01:25:02;14.60;99.90
2893;DHT22;1456;51.840;12.184;2022-07-12T01:27:29;14.60;99.90
2893;DHT22;1456;51.840;12.184;2022-07-12T01:29:55;14.50;99.90
2893;DHT22;1456;51.840;12.184;2022-07-12T01:32:21;14.50;99.90
2893;DHT22;1456;51.840;12.184;2022-07-12T01:34:55;14.50;99.90
2893;DHT22;1456;51.840;12.184;2022-07-12T01:37:25;14.50;99.90
2893;DHT22;1456;51.840;12.184;2022-07-12T01:39:53;14.40;99.90
2893;DHT22;1456;51.840;12.184;2022-07-12T01:42:23;14.40;99.90
2893;DHT22;1456;51.840;12.184;2022-07-12T01:44:49;14.30;99.90
2893;DHT22;1456;51.840;12.184;2022-07-12T01:47:17;14.30;99.90
2893;DHT22;1456;51.840;12.184;2022-07-12T01:49:44;14.30;99.90
2893;DHT22;1456;51.840;12.184;2022-07-12T01:52:10;14.30;99.90
2893;DHT22;1456;51.840;12.184;2022-07-12T01:54:37;14.20;99.90
2893;DHT22;1456;51.840;12.184;2022-07-12T01:57:04;14.10;99.90
2893;DHT22;1456;51.840;12.184;2022-07-12T01:59:30;14.10;99.90
2893;DHT22;1456;51.840;12.184;2022-07-12T02:01:56;14.10;99.90
2893;DHT22;1456;51.840;12.184;2022-07-12T02:04:22;14.10;99.90
2893;DHT22;1456;51.840;12.184;2022-07-12T02:06:48;14.10;99.90
2893;DHT22;1456;51.840;12.184;2022-07-12T02:09:15;14.00;99.90
2893;DHT22;1456;51.840;12.184;2022-07-12T02:11:42;14.00;99.90
2893;DHT22;1456;51.840;12.184;2022-07-12T02:14:09;14.00;99.90
2893;DHT22;1456;51.840;12.184;2022-07-12T02:16:35;14.00;99.90
2893;DHT22;1456;51.840;12.184;2022-07-12T02:19:01;14.00;99.90
2893;DHT22;1456;51.840;12.184;2022-07-12T02:21:27;14.00;99.90
2893;DHT22;1456;51.840;12.184;2022-07-12T02:23:53;14.00;99.90
2893;DHT22;1456;51.840;12.184;2022-07-12T02:26:19;13.90;99.90
2893;DHT22;1456;51.840;12.184;2022-07-12T02:28:45;13.90;99.90
2893;DHT22;1456;51.840;12.184;2022-07-12T02:31:11;13.80;99.90
2893;DHT22;1456;51.840;12.184;2022-07-12T02:33:37;13.80;99.90
2893;DHT22;1456;51.840;12.184;2022-07-12T02:36:03;13.80;99.90
2893;DHT22;1456;51.840;12.184;2022-07-12T02:38:29;13.80;99.90
2893;DHT22;1456;51.840;12.184;2022-07-12T02:40:55;13.80;99.90
2893;DHT22;1456;51.840;12.184;2022-07-12T02:43:25;13.80;99.90
2893;DHT22;1456;51.840;12.184;2022-07-12T02:45:53;13.80;99.90
2893;DHT22;1456;51.840;12.184;2022-07-12T02:48:19;13.70;99.90
2893;DHT22;1456;51.840;12.184;2022-07-12T02:50:45;13.70;99.90
2893;DHT22;1456;51.840;12.184;2022-07-12T02:53:11;13.60;99.90
2893;DHT22;1456;51.840;12.184;2022-07-12T02:55:37;13.60;99.90
2893;DHT22;1456;51.840;12.184;2022-07-12T02:58:04;13.60;99.90
2893;DHT22;1456;51.840;12.184;2022-07-12T03:00:31;13.50;99.90
2893;DHT22;1456;51.840;12.184;2022-07-12T03:02:57;13.50;99.90
2893;DHT22;1456;51.840;12.184;2022-07-12T03:05:23;13.50;99.90
2893;DHT22;1456;51.840;12.184;2022-07-12T03:07:48;13.50;99.90
2893;DHT22;1456;51.840;12.184;2022-07-12T03:10:14;13.50;99.90
2893;DHT22;1456;51.840;12.184;2022-07-12T03:12:40;13.50;99.90
2893;DHT22;1456;51.840;12.184;2022-07-12T03:15:07;13.40;99.90
2893;DHT22;1456;51.840;12.184;2022-07-12T03:17:34;13.50;99.90
2893;DHT22;1456;51.840;12.184;2022-07-12T03:20:00;13.50;99.90
2893;DHT22;1456;51.840;12.184;2022-07-12T03:22:25;13.50;99.90
2893;DHT22;1456;51.840;12.184;2022-07-12T03:24:51;13.50;99.90
2893;DHT22;1456;51.840;12.184;2022-07-12T03:27:17;13.50;99.90
2893;DHT22;1456;51.840;12.184;2022-07-12T03:29:43;13.50;99.90
2893;DHT22;1456;51.840;12.184;2022-07-12T03:32:09;13.50;99.90
2893;DHT22;1456;51.840;12.184;2022-07-12T03:34:35;13.50;99.90
2893;DHT22;1456;51.840;12.184;2022-07-12T03:37:02;13.50;99.90
2893;DHT22;1456;51.840;12.184;2022-07-12T03:39:28;13.60;99.90
2893;DHT22;1456;51.840;12.184;2022-07-12T03:41:54;13.60;99.90
2893;DHT22;1456;51.840;12.184;2022-07-12T03:44:20;13.60;99.90
2893;DHT22;1456;51.840;12.184;2022-07-12T03:46:47;13.60;99.90
2893;DHT22;1456;51.840;12.184;2022-07-12T03:49:13;13.60;99.90
2893;DHT22;1456;51.840;12.184;2022-07-12T03:51:39;13.60;99.90
2893;DHT22;1456;51.840;12.184;2022-07-12T03:54:06;13.60;99.90
2893;DHT22;1456;51.840;12.184;2022-07-12T03:56:35;13.70;99.90
2893;DHT22;1456;51.840;12.184;2022-07-12T03:59:20;13.70;99.90
2893;DHT22;1456;51.840;12.184;2022-07-12T04:01:46;13.80;99.90
2893;DHT22;1456;51.840;12.184;2022-07-12T04:04:12;13.80;99.90
2893;DHT22;1456;51.840;12.184;2022-07-12T04:06:38;13.90;99.90
2893;DHT22;1456;51.840;12.184;2022-07-12T04:09:05;14.00;99.90
2893;DHT22;1456;51.840;12.184;2022-07-12T04:11:33;14.10;99.90
2893;DHT22;1456;51.840;12.184;2022-07-12T04:14:00;14.20;99.90
2893;DHT22;1456;51.840;12.184;2022-07-12T04:16:26;14.20;99.90
2893;DHT22;1456;51.840;12.184;2022-07-12T04:18:52;14.20;99.90
2893;DHT22;1456;51.840;12.184;2022-07-12T04:21:20;14.30;99.90
2893;DHT22;1456;51.840;12.184;2022-07-12T04:23:46;14.30;99.90
2893;DHT22;1456;51.840;12.184;2022-07-12T04:26:11;14.40;99.90
2893;DHT22;1456;51.840;12.184;2022-07-12T04:28:37;14.40;99.90
2893;DHT22;1456;51.840;12.184;2022-07-12T04:31:03;14.50;99.90
2893;DHT22;1456;51.840;12.184;2022-07-12T04:33:29;14.60;99.90
2893;DHT22;1456;51.840;12.184;2022-07-12T04:35:54;14.60;99.90
2893;DHT22;1456;51.840;12.184;2022-07-12T04:38:20;14.60;99.90
2893;DHT22;1456;51.840;12.184;2022-07-12T04:40:46;14.60;99.90
2893;DHT22;1456;51.840;12.184;2022-07-12T04:43:11;14.70;99.90
2893;DHT22;1456;51.840;12.184;2022-07-12T04:45:37;14.80;99.90
2893;DHT22;1456;51.840;12.184;2022-07-12T04:48:03;14.90;99.90
2893;DHT22;1456;51.840;12.184;2022-07-12T04:50:29;14.90;99.90
2893;DHT22;1456;51.840;12.184;2022-07-12T04:52:55;15.00;99.90
2893;DHT22;1456;51.840;12.184;2022-07-12T04:55:20;15.00;99.90
2893;DHT22;1456;51.840;12.184;2022-07-12T04:57:46;15.00;99.90
2893;DHT22;1456;51.840;12.184;2022-07-12T05:00:12;15.00;99.90
2893;DHT22;1456;51.840;12.184;2022-07-12T05:02:38;15.00;99.90
2893;DHT22;1456;51.840;12.184;2022-07-12T05:05:04;15.00;99.90
2893;DHT22;1456;51.840;12.184;2022-07-12T05:07:30;15.00;99.90
2893;DHT22;1456;51.840;12.184;2022-07-12T05:09:56;15.10;99.90
2893;DHT22;1456;51.840;12.184;2022-07-12T05:12:22;15.20;99.90
2893;DHT22;1456;51.840;12.184;2022-07-12T05:14:47;15.20;99.90
2893;DHT22;1456;51.840;12.184;2022-07-12T05:17:13;15.30;99.90
2893;DHT22;1456;51.840;12.184;2022-07-12T05:19:39;15.40;99.90
2893;DHT22;1456;51.840;12.184;2022-07-12T05:22:05;15.40;99.90
2893;DHT22;1456;51.840;12.184;2022-07-12T05:24:31;15.60;99.90
2893;DHT22;1456;51.840;12.184;2022-07-12T05:26:56;15.70;99.90
2893;DHT22;1456;51.840;12.184;2022-07-12T05:29:22;15.90;99.90
2893;DHT22;1456;51.840;12.184;2022-07-12T05:31:49;16.00;99.90
2893;DHT22;1456;51.840;12.184;2022-07-12T05:34:15;16.00;99.90
2893;DHT22;1456;51.840;12.184;2022-07-12T05:36:41;16.10;99.90
2893;DHT22;1456;51.840;12.184;2022-07-12T05:39:07;16.10;99.90
2893;DHT22;1456;51.840;12.184;2022-07-12T05:41:33;16.20;99.90
2893;DHT22;1456;51.840;12.184;2022-07-12T05:43:59;16.30;99.90
2893;DHT22;1456;51.840;12.184;2022-07-12T05:46:24;16.30;99.90
2893;DHT22;1456;51.840;12.184;2022-07-12T05:48:50;16.30;99.90
2893;DHT22;1456;51.840;12.184;2022-07-12T05:51:16;16.30;99.90
2893;DHT22;1456;51.840;12.184;2022-07-12T05:54:00;16.40;99.90
2893;DHT22;1456;51.840;12.184;2022-07-12T05:56:26;16.50;99.90
2893;DHT22;1456;51.840;12.184;2022-07-12T05:58:52;16.60;99.90
2893;DHT22;1456;51.840;12.184;2022-07-12T06:01:18;16.80;99.90
2893;DHT22;1456;51.840;12.184;2022-07-12T06:03:44;16.90;99.90
2893;DHT22;1456;51.840;12.184;2022-07-12T06:06:09;16.90;99.90
2893;DHT22;1456;51.840;12.184;2022-07-12T06:08:35;17.00;99.90
2893;DHT22;1456;51.840;12.184;2022-07-12T06:11:01;17.20;99.90
2893;DHT22;1456;51.840;12.184;2022-07-12T06:13:26;17.30;99.90
2893;DHT22;1456;51.840;12.184;2022-07-12T06:15:53;17.40;99.90
2893;DHT22;1456;51.840;12.184;2022-07-12T06:18:18;17.60;99.90
2893;DHT22;1456;51.840;12.184;2022-07-12T06:20:45;17.50;99.90
2893;DHT22;1456;51.840;12.184;2022-07-12T06:23:11;17.60;99.90
2893;DHT22;1456;51.840;12.184;2022-07-12T06:25:39;17.70;99.90
2893;DHT22;1456;51.840;12.184;2022-07-12T06:28:05;17.80;99.90
2893;DHT22;1456;51.840;12.184;2022-07-12T06:30:31;17.90;99.90
2893;DHT22;1456;51.840;12.184;2022-07-12T06:32:56;17.90;99.90
2893;DHT22;1456;51.840;12.184;2022-07-12T06:35:22;18.00;99.90
2893;DHT22;1456;51.840;12.184;2022-07-12T06:37:48;18.10;99.90
2893;DHT22;1456;51.840;12.184;2022-07-12T06:40:13;18.30;99.90
2893;DHT22;1456;51.840;12.184;2022-07-12T06:42:43;18.30;99.90
2893;DHT22;1456;51.840;12.184;2022-07-12T06:45:09;18.50;99.90
2893;DHT22;1456;51.840;12.184;2022-07-12T06:47:35;18.60;99.90
2893;DHT22;1456;51.840;12.184;2022-07-12T06:50:01;18.70;99.90
2893;DHT22;1456;51.840;12.184;2022-07-12T06:52:27;18.70;99.90
2893;DHT22;1456;51.840;12.184;2022-07-12T06:54:53;18.90;99.90
2893;DHT22;1456;51.840;12.184;2022-07-12T06:57:19;19.00;99.90
2893;DHT22;1456;51.840;12.184;2022-07-12T06:59:44;19.20;99.90
2893;DHT22;1456;51.840;12.184;2022-07-12T07:02:10;19.20;99.90
2893;DHT22;1456;51.840;12.184;2022-07-12T07:04:36;19.30;99.90
2893;DHT22;1456;51.840;12.184;2022-07-12T07:07:01;19.40;99.90
2893;DHT22;1456;51.840;12.184;2022-07-12T07:09:27;19.50;99.90
2893;DHT22;1456;51.840;12.184;2022-07-12T07:11:53;19.50;99.90
2893;DHT22;1456;51.840;12.184;2022-07-12T07:14:19;19.70;99.90
2893;DHT22;1456;51.840;12.184;2022-07-12T07:16:45;19.80;99.90
2893;DHT22;1456;51.840;12.184;2022-07-12T07:19:13;19.80;99.90
2893;DHT22;1456;51.840;12.184;2022-07-12T07:21:38;19.80;99.90
2893;DHT22;1456;51.840;12.184;2022-07-12T07:24:04;19.90;99.90
2893;DHT22;1456;51.840;12.184;2022-07-12T07:26:30;20.00;99.90
2893;DHT22;1456;51.840;12.184;2022-07-12T07:28:56;20.00;99.90
2893;DHT22;1456;51.840;12.184;2022-07-12T07:31:40;20.20;99.90
2893;DHT22;1456;51.840;12.184;2022-07-12T07:34:06;20.50;99.90
2893;DHT22;1456;51.840;12.184;2022-07-12T07:36:32;20.80;99.90
2893;DHT22;1456;51.840;12.184;2022-07-12T07:38:58;21.00;99.90
2893;DHT22;1456;51.840;12.184;2022-07-12T07:41:24;21.20;99.90
2893;DHT22;1456;51.840;12.184;2022-07-12T07:43:50;21.30;99.90
2893;DHT22;1456;51.840;12.184;2022-07-12T07:46:16;21.20;99.90
2893;DHT22;1456;51.840;12.184;2022-07-12T07:48:42;21.20;99.90
2893;DHT22;1456;51.840;12.184;2022-07-12T07:51:08;21.20;99.90
2893;DHT22;1456;51.840;12.184;2022-07-12T07:53:33;21.10;99.90
2893;DHT22;1456;51.840;12.184;2022-07-12T07:56:00;21.20;99.90
2893;DHT22;1456;51.840;12.184;2022-07-12T07:58:25;21.40;99.90
2893;DHT22;1456;51.840;12.184;2022-07-12T08:00:52;21.60;99.90
2893;DHT22;1456;51.840;12.184;2022-07-12T08:03:19;21.70;99.90
2893;DHT22;1456;51.840;12.184;2022-07-12T08:05:45;21.80;99.90
2893;DHT22;1456;51.840;12.184;2022-07-12T08:08:12;21.80;99.90
2893;DHT22;1456;51.840;12.184;2022-07-12T08:10:38;22.10;99.90
2893;DHT22;1456;51.840;12.184;2022-07-12T08:13:04;22.10;99.90
2893;DHT22;1456;51.840;12.184;2022-07-12T08:15:30;22.20;99.90
2893;DHT22;1456;51.840;12.184;2022-07-12T08:17:56;22.20;99.90
2893;DHT22;1456;51.840;12.184;2022-07-12T08:20:23;22.20;99.90
2893;DHT22;1456;51.840;12.184;2022-07-12T08:22:49;22.60;99.90
2893;DHT22;1456;51.840;12.184;2022-07-12T08:25:15;22.90;98.90
2893;DHT22;1456;51.840;12.184;2022-07-12T08:27:42;22.90;97.60
2893;DHT22;1456;51.840;12.184;2022-07-12T08:30:08;23.10;98.40
2893;DHT22;1456;51.840;12.184;2022-07-12T08:32:34;23.30;97.40
2893;DHT22;1456;51.840;12.184;2022-07-12T08:35:00;23.50;96.70
2893;DHT22;1456;51.840;12.184;2022-07-12T08:37:26;23.60;95.30
2893;DHT22;1456;51.840;12.184;2022-07-12T08:39:52;23.70;97.70
2893;DHT22;1456;51.840;12.184;2022-07-12T08:42:18;23.90;94.50
2893;DHT22;1456;51.840;12.184;2022-07-12T08:44:58;24.00;95.30
2893;DHT22;1456;51.840;12.184;2022-07-12T08:47:24;23.80;95.00
2893;DHT22;1456;51.840;12.184;2022-07-12T08:50:11;23.70;94.30
2893;DHT22;1456;51.840;12.184;2022-07-12T08:52:41;23.70;94.00
2893;DHT22;1456;51.840;12.184;2022-07-12T08:55:17;24.00;94.60
2893;DHT22;1456;51.840;12.184;2022-07-12T08:57:43;24.20;94.00
2893;DHT22;1456;51.840;12.184;2022-07-12T09:00:10;24.40;93.70
2893;DHT22;1456;51.840;12.184;2022-07-12T09:02:56;24.50;92.30
2893;DHT22;1456;51.840;12.184;2022-07-12T09:05:27;24.60;94.50
2893;DHT22;1456;51.840;12.184;2022-07-12T09:08:11;24.70;94.00
2893;DHT22;1456;51.840;12.184;2022-07-12T09:10:53;24.40;94.10
2893;DHT22;1456;51.840;12.184;2022-07-12T09:13:19;24.20;91.10
2893;DHT22;1456;51.840;12.184;2022-07-12T09:15:46;24.20;94.10
2893;DHT22;1456;51.840;12.184;2022-07-12T09:18:16;24.40;95.10
2893;DHT22;1456;51.840;12.184;2022-07-12T09:20:50;24.60;94.00
2893;DHT22;1456;51.840;12.184;2022-07-12T09:23:16;25.00;93.20
2893;DHT22;1456;51.840;12.184;2022-07-12T09:25:47;25.10;87.30
2893;DHT22;1456;51.840;12.184;2022-07-12T09:28:15;24.70;88.80
2893;DHT22;1456;51.840;12.184;2022-07-12T09:30:49;24.40;91.00
2893;DHT22;1456;51.840;12.184;2022-07-12T09:33:18;24.40;92.90
2893;DHT22;1456;51.840;12.184;2022-07-12T09:36:03;24.60;90.80
2893;DHT22;1456;51.840;12.184;2022-07-12T09:38:36;24.80;86.00
2893;DHT22;1456;51.840;12.184;2022-07-12T09:41:11;24.70;88.20
2893;DHT22;1456;51.840;12.184;2022-07-12T09:43:41;24.80;89.30
2893;DHT22;1456;51.840;12.184;2022-07-12T09:46:08;25.10;85.80
2893;DHT22;1456;51.840;12.184;2022-07-12T09:48:33;25.30;88.20
2893;DHT22;1456;51.840;12.184;2022-07-12T09:51:02;25.70;89.10
2893;DHT22;1456;51.840;12.184;2022-07-12T09:55:55;26.40;82.40
2893;DHT22;1456;51.840;12.184;2022-07-12T09:58:27;26.40;80.00
2893;DHT22;1456;51.840;12.184;2022-07-12T10:00:53;26.80;90.50
2893;DHT22;1456;51.840;12.184;2022-07-12T10:03:21;27.20;79.40
2893;DHT22;1456;51.840;12.184;2022-07-12T10:05:54;27.50;77.20
2893;DHT22;1456;51.840;12.184;2022-07-12T10:08:20;27.70;76.70
2893;DHT22;1456;51.840;12.184;2022-07-12T10:10:48;28.00;75.60
2893;DHT22;1456;51.840;12.184;2022-07-12T10:13:16;28.20;75.50
2893;DHT22;1456;51.840;12.184;2022-07-12T10:15:43;28.50;75.90
2893;DHT22;1456;51.840;12.184;2022-07-12T10:18:18;28.70;72.20
2893;DHT22;1456;51.840;12.184;2022-07-12T10:20:48;29.30;73.90
2893;DHT22;1456;51.840;12.184;2022-07-12T10:25:49;30.90;68.20
2893;DHT22;1456;51.840;12.184;2022-07-12T10:28:15;31.20;69.70
2893;DHT22;1456;51.840;12.184;2022-07-12T10:30:46;31.20;58.80
2893;DHT22;1456;51.840;12.184;2022-07-12T10:33:17;30.60;57.70
2893;DHT22;1456;51.840;12.184;2022-07-12T10:36:03;30.10;61.20
2893;DHT22;1456;51.840;12.184;2022-07-12T10:38:32;30.20;63.20
2893;DHT22;1456;51.840;12.184;2022-07-12T10:41:19;30.50;59.70
2893;DHT22;1456;51.840;12.184;2022-07-12T10:43:45;31.20;61.20
2893;DHT22;1456;51.840;12.184;2022-07-12T10:46:29;31.70;57.70
2893;DHT22;1456;51.840;12.184;2022-07-12T10:49:48;32.20;57.40
2893;DHT22;1456;51.840;12.184;2022-07-12T10:52:17;32.40;54.40
2893;DHT22;1456;51.840;12.184;2022-07-12T10:57:49;32.50;55.60
2893;DHT22;1456;51.840;12.184;2022-07-12T11:00:20;32.70;52.90
2893;DHT22;1456;51.840;12.184;2022-07-12T11:02:48;32.50;57.90
2893;DHT22;1456;51.840;12.184;2022-07-12T11:05:13;32.20;51.00
2893;DHT22;1456;51.840;12.184;2022-07-12T11:07:39;32.60;51.70
2893;DHT22;1456;51.840;12.184;2022-07-12T11:10:06;32.50;49.50
2893;DHT22;1456;51.840;12.184;2022-07-12T11:12:32;32.50;52.10
2893;DHT22;1456;51.840;12.184;2022-07-12T11:15:02;33.30;49.80
2893;DHT22;1456;51.840;12.184;2022-07-12T11:17:29;33.70;51.00
2893;DHT22;1456;51.840;12.184;2022-07-12T11:20:06;35.00;50.40
2893;DHT22;1456;51.840;12.184;2022-07-12T11:22:34;35.70;47.90
2893;DHT22;1456;51.840;12.184;2022-07-12T11:25:02;36.00;48.50
2893;DHT22;1456;51.840;12.184;2022-07-12T11:27:27;35.90;46.30
2893;DHT22;1456;51.840;12.184;2022-07-12T11:29:59;35.90;46.40
2893;DHT22;1456;51.840;12.184;2022-07-12T11:35:00;35.60;44.60
2893;DHT22;1456;51.840;12.184;2022-07-12T11:37:26;36.20;44.30
2893;DHT22;1456;51.840;12.184;2022-07-12T11:39:52;35.90;43.70
2893;DHT22;1456;51.840;12.184;2022-07-12T11:42:17;35.60;43.40
2893;DHT22;1456;51.840;12.184;2022-07-12T11:44:48;35.60;43.10
2893;DHT22;1456;51.840;12.184;2022-07-12T11:47:15;36.10;44.30
2893;DHT22;1456;51.840;12.184;2022-07-12T11:49:48;36.20;42.70
2893;DHT22;1456;51.840;12.184;2022-07-12T11:52:24;35.90;40.30
2893;DHT22;1456;51.840;12.184;2022-07-12T11:54:52;36.10;42.80
2893;DHT22;1456;51.840;12.184;2022-07-12T11:57:23;36.10;43.20
2893;DHT22;1456;51.840;12.184;2022-07-12T11:59:49;36.30;44.40
2893;DHT22;1456;51.840;12.184;2022-07-12T12:02:15;36.60;41.80
2893;DHT22;1456;51.840;12.184;2022-07-12T12:04:48;37.00;40.90
2893;DHT22;1456;51.840;12.184;2022-07-12T12:07:14;36.90;40.40
2893;DHT22;1456;51.840;12.184;2022-07-12T12:10:03;37.60;43.90
2893;DHT22;1456;51.840;12.184;2022-07-12T12:12:43;38.60;42.10
2893;DHT22;1456;51.840;12.184;2022-07-12T12:15:11;37.60;36.90
2893;DHT22;1456;51.840;12.184;2022-07-12T12:17:42;37.00;39.20
2893;DHT22;1456;51.840;12.184;2022-07-12T12:20:13;36.80;40.90
2893;DHT22;1456;51.840;12.184;2022-07-12T12:22:39;37.20;39.70
2893;DHT22;1456;51.840;12.184;2022-07-12T12:25:06;38.00;41.20
2893;DHT22;1456;51.840;12.184;2022-07-12T12:27:42;38.50;39.90
2893;DHT22;1456;51.840;12.184;2022-07-12T12:30:08;39.60;43.30
2893;DHT22;1456;51.840;12.184;2022-07-12T12:32:54;40.30;37.70
2893;DHT22;1456;51.840;12.184;2022-07-12T12:35:40;40.60;39.40
2893;DHT22;1456;51.840;12.184;2022-07-12T12:38:14;41.20;35.10
2893;DHT22;1456;51.840;12.184;2022-07-12T12:40:41;40.70;35.60
2893;DHT22;1456;51.840;12.184;2022-07-12T12:43:20;40.10;35.30
2893;DHT22;1456;51.840;12.184;2022-07-12T12:45:51;39.90;36.80
2893;DHT22;1456;51.840;12.184;2022-07-12T12:48:19;40.70;38.00
2893;DHT22;1456;51.840;12.184;2022-07-12T12:50:46;41.50;36.50
2893;DHT22;1456;51.840;12.184;2022-07-12T12:55:43;41.80;33.20
2893;DHT22;1456;51.840;12.184;2022-07-12T12:58:10;41.50;34.70
2893;DHT22;1456;51.840;12.184;2022-07-12T13:00:38;40.40;33.80
2893;DHT22;1456;51.840;12.184;2022-07-12T13:03:05;39.80;34.30
2893;DHT22;1456;51.840;12.184;2022-07-12T13:05:31;40.80;36.00
2893;DHT22;1456;51.840;12.184;2022-07-12T13:07:57;41.60;33.60
2893;DHT22;1456;51.840;12.184;2022-07-12T13:10:23;40.70;33.60
2893;DHT22;1456;51.840;12.184;2022-07-12T13:12:51;40.10;32.20
2893;DHT22;1456;51.840;12.184;2022-07-12T13:15:17;40.00;34.80
2893;DHT22;1456;51.840;12.184;2022-07-12T13:17:43;40.50;36.90
2893;DHT22;1456;51.840;12.184;2022-07-12T13:20:09;42.10;34.80
2893;DHT22;1456;51.840;12.184;2022-07-12T13:22:35;43.00;31.80
2893;DHT22;1456;51.840;12.184;2022-07-12T13:25:03;43.00;32.90
2893;DHT22;1456;51.840;12.184;2022-07-12T13:27:29;42.70;35.00
2893;DHT22;1456;51.840;12.184;2022-07-12T13:29:55;43.30;33.00
2893;DHT22;1456;51.840;12.184;2022-07-12T13:32:21;42.80;31.80
2893;DHT22;1456;51.840;12.184;2022-07-12T13:34:47;42.80;32.00
2893;DHT22;1456;51.840;12.184;2022-07-12T13:37:14;43.10;31.00
2893;DHT22;1456;51.840;12.184;2022-07-12T13:39:39;43.50;32.60
2893;DHT22;1456;51.840;12.184;2022-07-12T13:42:23;44.00;32.50
2893;DHT22;1456;51.840;12.184;2022-07-12T13:44:51;44.50;30.90
2893;DHT22;1456;51.840;12.184;2022-07-12T13:47:19;45.30;33.00
2893;DHT22;1456;51.840;12.184;2022-07-12T13:49:45;45.50;31.00
2893;DHT22;1456;51.840;12.184;2022-07-12T13:52:10;46.10;33.10
2893;DHT22;1456;51.840;12.184;2022-07-12T13:54:36;47.20;29.60
2893;DHT22;1456;51.840;12.184;2022-07-12T13:57:03;48.50;29.90
2893;DHT22;1456;51.840;12.184;2022-07-12T13:59:30;49.10;29.60
2893;DHT22;1456;51.840;12.184;2022-07-12T14:01:55;47.90;29.30
2893;DHT22;1456;51.840;12.184;2022-07-12T14:04:21;47.60;30.70
2893;DHT22;1456;51.840;12.184;2022-07-12T14:06:47;47.80;28.10
2893;DHT22;1456;51.840;12.184;2022-07-12T14:09:15;47.90;29.40
2893;DHT22;1456;51.840;12.184;2022-07-12T14:11:40;48.30;27.80
2893;DHT22;1456;51.840;12.184;2022-07-12T14:14:06;47.50;28.50
2893;DHT22;1456;51.840;12.184;2022-07-12T14:16:32;47.50;28.30
2893;DHT22;1456;51.840;12.184;2022-07-12T14:18:59;48.00;28.40
2893;DHT22;1456;51.840;12.184;2022-07-12T14:21:27;48.30;28.40
2893;DHT22;1456;51.840;12.184;2022-07-12T14:23:56;48.50;27.80
2893;DHT22;1456;51.840;12.184;2022-07-12T14:26:28;48.10;27.90
2893;DHT22;1456;51.840;12.184;2022-07-12T14:28:54;48.20;28.50
2893;DHT22;1456;51.840;12.184;2022-07-12T14:31:20;47.10;27.90
2893;DHT22;1456;51.840;12.184;2022-07-12T14:33:45;46.20;28.30
2893;DHT22;1456;51.840;12.184;2022-07-12T14:36:11;44.40;28.00
2893;DHT22;1456;51.840;12.184;2022-07-12T14:38:37;43.30;28.60
2893;DHT22;1456;51.840;12.184;2022-07-12T14:41:11;43.10;29.70
2893;DHT22;1456;51.840;12.184;2022-07-12T14:44:11;44.30;28.70
2893;DHT22;1456;51.840;12.184;2022-07-12T14:46:50;46.00;28.80
2893;DHT22;1456;51.840;12.184;2022-07-12T14:49:18;47.30;28.50
2893;DHT22;1456;51.840;12.184;2022-07-12T14:52:09;47.80;27.60
2893;DHT22;1456;51.840;12.184;2022-07-12T14:54:34;48.00;27.70
2893;DHT22;1456;51.840;12.184;2022-07-12T14:57:11;47.10;33.10
2893;DHT22;1456;51.840;12.184;2022-07-12T14:59:37;46.70;31.50
2893;DHT22;1456;51.840;12.184;2022-07-12T15:02:12;46.50;32.00
2893;DHT22;1456;51.840;12.184;2022-07-12T15:04:46;45.10;29.70
2893;DHT22;1456;51.840;12.184;2022-07-12T15:07:12;43.90;28.80
2893;DHT22;1456;51.840;12.184;2022-07-12T15:09:38;44.40;32.70
2893;DHT22;1456;51.840;12.184;2022-07-12T15:12:03;43.60;30.30
2893;DHT22;1456;51.840;12.184;2022-07-12T15:14:29;42.20;31.90
2893;DHT22;1456;51.840;12.184;2022-07-12T15:16:55;42.00;31.00
2893;DHT22;1456;51.840;12.184;2022-07-12T15:19:22;41.10;31.60
2893;DHT22;1456;51.840;12.184;2022-07-12T15:21:47;39.90;34.00
2893;DHT22;1456;51.840;12.184;2022-07-12T15:24:13;39.10;31.00
2893;DHT22;1456;51.840;12.184;2022-07-12T15:26:38;40.80;32.20
2893;DHT22;1456;51.840;12.184;2022-07-12T15:29:05;42.10;32.20
2893;DHT22;1456;51.840;12.184;2022-07-12T15:31:31;43.40;30.50
2893;DHT22;1456;51.840;12.184;2022-07-12T15:33:59;44.10;30.20
2893;DHT22;1456;51.840;12.184;2022-07-12T15:36:25;43.90;32.90
2893;DHT22;1456;51.840;12.184;2022-07-12T15:38:51;44.30;28.70
2893;DHT22;1456;51.840;12.184;2022-07-12T15:41:18;44.30;31.00
2893;DHT22;1456;51.840;12.184;2022-07-12T15:43:44;44.30;29.70
2893;DHT22;1456;51.840;12.184;2022-07-12T15:46:11;44.50;30.40
2893;DHT22;1456;51.840;12.184;2022-07-12T15:48:38;43.60;29.30
2893;DHT22;1456;51.840;12.184;2022-07-12T15:51:05;41.90;30.40
2893;DHT22;1456;51.840;12.184;2022-07-12T15:53:31;40.30;32.20
2893;DHT22;1456;51.840;12.184;2022-07-12T15:56:01;40.40;30.70
2893;DHT22;1456;51.840;12.184;2022-07-12T15:58:35;41.30;31.20
2893;DHT22;1456;51.840;12.184;2022-07-12T16:01:02;42.70;29.60
2893;DHT22;1456;51.840;12.184;2022-07-12T16:03:28;42.10;29.40